»·PEaware :: N566BG KONT-KTOA

N566BG :: KONT-KTOA

FLIGHT INFORMATION

Flight Status: Arrived
Operator: Privately registered:
United States
More flights under this callsign
Pilot: Jason C. (4537)
Aircraft: CESSNA 172 SKYHAWK
(C172)
More flights by this aircraft type
Origin: KONT Ontario Intl
United States
Destination: KTOA Zamperini
United States
More flights between these airports :: More routes between these airports
Route: +PDZ PDZ270R V394 SLI
File this flight plan on PilotEdge
Remarks:
Altitude:
(Current/Filed)
4,000ft
Speed:
(Current/Filed)
105kts
Departed: 04-Jan-18 03:55 PM
Arrived: 04-Jan-18 04:27 PM
Distance/Time
Traveled:
40nm/0:31
Distance/Time
To Go:
Arrived

Flight Plot

Page will automatically refresh every two minutes.


Map Options




Map Legend


Flown Route
Filed Route
Departure Airport
Arrival Airport
Navaid (VOR, NDB)
Fix

Horizontal Profiles

Position Reports

Time Latitude Longitude Heading Altitude Ground
Speed
04-Jan-18 15:42 34.052445 -117.611662 78 919ft 0kts
04-Jan-18 15:43 34.052445 -117.611662 78 919ft 0kts
04-Jan-18 15:44 34.052445 -117.611662 77 919ft 0kts
04-Jan-18 15:45 34.052445 -117.611662 78 919ft 0kts
04-Jan-18 15:46 34.052445 -117.611662 78 919ft 0kts
04-Jan-18 15:47 34.052456 -117.611575 86 919ft 0kts
04-Jan-18 15:48 34.052456 -117.611571 86 919ft 0kts
04-Jan-18 15:49 34.052457 -117.611516 86 919ft 1kts
04-Jan-18 15:50 34.052526 -117.611449 308 919ft 0kts
04-Jan-18 15:51 34.053104 -117.612841 303 922ft 0kts
04-Jan-18 15:52 34.053877 -117.609374 92 921ft 25kts
04-Jan-18 15:53 34.053841 -117.601543 98 915ft 14kts
04-Jan-18 15:54 34.053833 -117.595797 89 915ft 19kts
04-Jan-18 15:55 34.053833 -117.590004 91 915ft 18kts
04-Jan-18 15:56 34.053847 -117.584647 89 915ft 18kts
04-Jan-18 15:57 34.054143 -117.582355 34 917ft 0kts
04-Jan-18 15:58 34.054143 -117.582355 34 917ft 0kts
04-Jan-18 15:59 34.054143 -117.582354 34 917ft 0kts
04-Jan-18 16:00 34.054997 -117.582624 259 922ft 10kts
04-Jan-18 16:01 34.055373 -117.601571 267 1589ft 77kts
04-Jan-18 16:02 34.054890 -117.625082 265 2504ft 81kts
04-Jan-18 16:03 34.054279 -117.648733 263 3405ft 81kts
04-Jan-18 16:04 34.053159 -117.674051 261 3971ft 107kts
04-Jan-18 16:05 34.041977 -117.705939 231 3997ft 125kts
04-Jan-18 16:06 34.020477 -117.735181 231 3945ft 126kts
04-Jan-18 16:07 33.999203 -117.766638 232 3978ft 127kts
04-Jan-18 16:08 33.975859 -117.798301 226 3984ft 130kts
04-Jan-18 16:09 33.950093 -117.828643 234 3933ft 131kts
04-Jan-18 16:10 33.922847 -117.853662 201 3913ft 135kts
04-Jan-18 16:11 33.892153 -117.872819 212 3916ft 133kts
04-Jan-18 16:12 33.859956 -117.876903 169 3912ft 136kts
04-Jan-18 16:13 33.827000 -117.869509 167 3972ft 134kts
04-Jan-18 16:14 33.792500 -117.861927 174 3961ft 135kts
04-Jan-18 16:15 33.758833 -117.852414 167 3984ft 134kts
04-Jan-18 16:16 33.723657 -117.847423 185 3971ft 135kts
04-Jan-18 16:17 33.687538 -117.850708 182 3993ft 134kts
04-Jan-18 16:18 33.655668 -117.864037 253 4004ft 128kts
04-Jan-18 16:19 33.647918 -117.905259 261 3993ft 128kts
04-Jan-18 16:20 33.644695 -117.947334 261 4014ft 126kts
04-Jan-18 16:21 33.646362 -117.989076 276 4011ft 126kts
04-Jan-18 16:22 33.647318 -118.031001 275 4002ft 127kts
04-Jan-18 16:23 33.652533 -118.072838 285 3934ft 120kts
04-Jan-18 16:24 33.659556 -118.099694 283 3201ft 125kts
04-Jan-18 16:25 33.670614 -118.140979 300 3026ft 126kts
04-Jan-18 16:26 33.693700 -118.173851 309 2737ft 122kts
04-Jan-18 16:27 33.711516 -118.205534 314 2005ft 110kts
04-Jan-18 16:28 33.731590 -118.233301 313 1966ft 112kts
04-Jan-18 16:29 33.750483 -118.258734 299 2002ft 106kts
04-Jan-18 16:30 33.766621 -118.283676 316 1165ft 102kts
04-Jan-18 16:31 33.783390 -118.308363 303 571ft 98kts
04-Jan-18 16:32 33.797806 -118.330130 308 251ft 73kts
04-Jan-18 16:33 33.805017 -118.341043 307 94ft 23kts
04-Jan-18 16:34 33.805845 -118.343723 286 92ft 0kts
04-Jan-18 16:35 33.806103 -118.344676 267 91ft 3kts
04-Jan-18 16:36 33.804807 -118.345884 241 96ft 2kts
04-Jan-18 16:37 33.804711 -118.346114 240 97ft 0kts
04-Jan-18 16:38 33.804711 -118.346114 240 97ft 0kts
04-Jan-18 16:39 33.804711 -118.346114 240 97ft 0kts
04-Jan-18 16:40 33.804711 -118.346114 240 97ft 0kts
04-Jan-18 16:41 33.804711 -118.346114 240 97ft 0kts
04-Jan-18 16:42 33.804711 -118.346114 239 97ft 0kts
04-Jan-18 16:43 33.804711 -118.346114 239 97ft 0kts
04-Jan-18 16:44 33.804711 -118.346114 239 97ft 0kts
04-Jan-18 16:45 33.804711 -118.346114 239 97ft 0kts
04-Jan-18 16:46 33.804711 -118.346114 239 97ft 0kts
04-Jan-18 16:47 33.804711 -118.346114 239 97ft 0kts

Navigation Log

Ident Type
1. KONT Airport
2. PDZ Navaid
3. SLI Navaid
4. KTOA Airport